sensor_id;sensor_type;location;lat;lon;timestamp;P1;durP1;ratioP1;P2;durP2;ratioP2
23470;SDS011;11908;50.806;4.424;2023-12-04T00:00:41;11.93;;;7.60;;
23470;SDS011;11908;50.806;4.424;2023-12-04T00:03:07;9.60;;;6.15;;
23470;SDS011;11908;50.806;4.424;2023-12-04T00:05:32;12.68;;;7.20;;
23470;SDS011;11908;50.806;4.424;2023-12-04T00:07:58;13.65;;;7.63;;
23470;SDS011;11908;50.806;4.424;2023-12-04T00:10:24;13.27;;;6.88;;
23470;SDS011;11908;50.806;4.424;2023-12-04T00:12:51;10.63;;;6.65;;
23470;SDS011;11908;50.806;4.424;2023-12-04T00:15:18;11.40;;;6.88;;
23470;SDS011;11908;50.806;4.424;2023-12-04T00:17:44;12.27;;;6.47;;
23470;SDS011;11908;50.806;4.424;2023-12-04T00:20:10;10.60;;;6.30;;
23470;SDS011;11908;50.806;4.424;2023-12-04T00:22:36;12.13;;;7.28;;
23470;SDS011;11908;50.806;4.424;2023-12-04T00:25:03;12.40;;;7.10;;
23470;SDS011;11908;50.806;4.424;2023-12-04T00:27:29;12.68;;;6.63;;
23470;SDS011;11908;50.806;4.424;2023-12-04T00:29:55;10.95;;;6.85;;
23470;SDS011;11908;50.806;4.424;2023-12-04T00:32:21;14.18;;;6.45;;
23470;SDS011;11908;50.806;4.424;2023-12-04T00:34:47;9.60;;;6.03;;
23470;SDS011;11908;50.806;4.424;2023-12-04T00:37:13;10.43;;;6.15;;
23470;SDS011;11908;50.806;4.424;2023-12-04T00:39:38;11.20;;;6.82;;
23470;SDS011;11908;50.806;4.424;2023-12-04T00:42:04;10.70;;;5.93;;
23470;SDS011;11908;50.806;4.424;2023-12-04T00:44:30;10.90;;;6.00;;
23470;SDS011;11908;50.806;4.424;2023-12-04T00:46:56;10.27;;;5.88;;
23470;SDS011;11908;50.806;4.424;2023-12-04T00:49:22;10.02;;;6.10;;
23470;SDS011;11908;50.806;4.424;2023-12-04T00:51:48;11.88;;;6.20;;
23470;SDS011;11908;50.806;4.424;2023-12-04T00:54:14;10.93;;;6.03;;
23470;SDS011;11908;50.806;4.424;2023-12-04T00:56:40;11.23;;;5.82;;
23470;SDS011;11908;50.806;4.424;2023-12-04T00:59:07;10.88;;;6.13;;
23470;SDS011;11908;50.806;4.424;2023-12-04T01:01:34;14.27;;;5.75;;
23470;SDS011;11908;50.806;4.424;2023-12-04T01:04:01;9.13;;;5.80;;
23470;SDS011;11908;50.806;4.424;2023-12-04T01:06:27;10.85;;;6.10;;
23470;SDS011;11908;50.806;4.424;2023-12-04T01:08:53;12.38;;;5.95;;
23470;SDS011;11908;50.806;4.424;2023-12-04T01:11:19;9.70;;;5.93;;
23470;SDS011;11908;50.806;4.424;2023-12-04T01:13:45;8.60;;;5.18;;
23470;SDS011;11908;50.806;4.424;2023-12-04T01:16:11;9.75;;;6.13;;
23470;SDS011;11908;50.806;4.424;2023-12-04T01:18:37;9.43;;;5.57;;
23470;SDS011;11908;50.806;4.424;2023-12-04T01:21:03;9.93;;;5.95;;
23470;SDS011;11908;50.806;4.424;2023-12-04T01:43:38;8.65;;;5.20;;
23470;SDS011;11908;50.806;4.424;2023-12-04T01:46:04;8.52;;;5.07;;
23470;SDS011;11908;50.806;4.424;2023-12-04T01:48:30;8.10;;;5.15;;
23470;SDS011;11908;50.806;4.424;2023-12-04T01:50:57;9.27;;;5.00;;
23470;SDS011;11908;50.806;4.424;2023-12-04T01:53:25;8.68;;;5.18;;
23470;SDS011;11908;50.806;4.424;2023-12-04T01:55:51;10.07;;;6.35;;
23470;SDS011;11908;50.806;4.424;2023-12-04T01:58:16;8.20;;;5.03;;
23470;SDS011;11908;50.806;4.424;2023-12-04T02:04:04;7.82;;;5.10;;
23470;SDS011;11908;50.806;4.424;2023-12-04T02:06:30;8.57;;;5.60;;
23470;SDS011;11908;50.806;4.424;2023-12-04T02:08:56;11.02;;;5.25;;
23470;SDS011;11908;50.806;4.424;2023-12-04T02:11:22;9.18;;;5.35;;
23470;SDS011;11908;50.806;4.424;2023-12-04T02:13:48;10.73;;;6.05;;
23470;SDS011;11908;50.806;4.424;2023-12-04T02:16:14;8.40;;;5.10;;
23470;SDS011;11908;50.806;4.424;2023-12-04T02:18:41;8.70;;;5.05;;
23470;SDS011;11908;50.806;4.424;2023-12-04T02:21:08;9.30;;;5.43;;
23470;SDS011;11908;50.806;4.424;2023-12-04T02:23:34;11.35;;;5.47;;
23470;SDS011;11908;50.806;4.424;2023-12-04T02:26:01;8.98;;;5.28;;
23470;SDS011;11908;50.806;4.424;2023-12-04T02:28:32;9.88;;;5.38;;
23470;SDS011;11908;50.806;4.424;2023-12-04T02:31:01;9.98;;;5.47;;
23470;SDS011;11908;50.806;4.424;2023-12-04T02:33:30;8.85;;;4.93;;
23470;SDS011;11908;50.806;4.424;2023-12-04T02:35:58;8.48;;;5.28;;
23470;SDS011;11908;50.806;4.424;2023-12-04T02:38:24;8.50;;;5.47;;
23470;SDS011;11908;50.806;4.424;2023-12-04T02:40:50;7.75;;;4.85;;
23470;SDS011;11908;50.806;4.424;2023-12-04T02:43:16;7.43;;;5.57;;
23470;SDS011;11908;50.806;4.424;2023-12-04T02:45:41;10.18;;;5.47;;
23470;SDS011;11908;50.806;4.424;2023-12-04T02:48:07;6.82;;;4.82;;
23470;SDS011;11908;50.806;4.424;2023-12-04T02:50:35;9.85;;;5.72;;
23470;SDS011;11908;50.806;4.424;2023-12-04T02:53:01;7.60;;;5.13;;
23470;SDS011;11908;50.806;4.424;2023-12-04T02:55:26;7.90;;;5.07;;
23470;SDS011;11908;50.806;4.424;2023-12-04T02:57:53;8.23;;;4.93;;
23470;SDS011;11908;50.806;4.424;2023-12-04T03:00:18;8.02;;;5.03;;
23470;SDS011;11908;50.806;4.424;2023-12-04T03:02:44;8.55;;;5.00;;
23470;SDS011;11908;50.806;4.424;2023-12-04T03:05:10;8.63;;;5.10;;
23470;SDS011;11908;50.806;4.424;2023-12-04T03:07:36;7.50;;;4.78;;
23470;SDS011;11908;50.806;4.424;2023-12-04T03:10:01;8.85;;;5.07;;
23470;SDS011;11908;50.806;4.424;2023-12-04T03:12:27;9.68;;;5.05;;
23470;SDS011;11908;50.806;4.424;2023-12-04T03:14:53;8.40;;;4.82;;
23470;SDS011;11908;50.806;4.424;2023-12-04T03:17:19;8.68;;;5.25;;
23470;SDS011;11908;50.806;4.424;2023-12-04T03:19:45;8.60;;;5.30;;
23470;SDS011;11908;50.806;4.424;2023-12-04T03:22:11;9.65;;;5.95;;
23470;SDS011;11908;50.806;4.424;2023-12-04T03:24:37;7.57;;;4.80;;
23470;SDS011;11908;50.806;4.424;2023-12-04T03:27:03;11.18;;;6.15;;
23470;SDS011;11908;50.806;4.424;2023-12-04T03:29:29;9.30;;;5.03;;
23470;SDS011;11908;50.806;4.424;2023-12-04T03:31:55;8.43;;;5.38;;
23470;SDS011;11908;50.806;4.424;2023-12-04T03:34:23;8.38;;;4.75;;
23470;SDS011;11908;50.806;4.424;2023-12-04T03:36:49;7.95;;;5.05;;
23470;SDS011;11908;50.806;4.424;2023-12-04T03:39:15;8.55;;;5.20;;
23470;SDS011;11908;50.806;4.424;2023-12-04T03:41:40;9.23;;;5.57;;
23470;SDS011;11908;50.806;4.424;2023-12-04T03:44:06;9.10;;;5.35;;
23470;SDS011;11908;50.806;4.424;2023-12-04T03:46:32;9.55;;;5.47;;
23470;SDS011;11908;50.806;4.424;2023-12-04T03:48:58;9.20;;;5.68;;
23470;SDS011;11908;50.806;4.424;2023-12-04T03:51:24;9.95;;;6.00;;
23470;SDS011;11908;50.806;4.424;2023-12-04T03:53:50;9.02;;;5.35;;
23470;SDS011;11908;50.806;4.424;2023-12-04T03:56:16;9.60;;;5.10;;
23470;SDS011;11908;50.806;4.424;2023-12-04T03:58:41;9.55;;;5.30;;
23470;SDS011;11908;50.806;4.424;2023-12-04T04:01:07;7.80;;;5.20;;
23470;SDS011;11908;50.806;4.424;2023-12-04T04:03:32;7.75;;;5.05;;
23470;SDS011;11908;50.806;4.424;2023-12-04T04:05:58;9.90;;;5.82;;
23470;SDS011;11908;50.806;4.424;2023-12-04T04:08:24;9.32;;;5.90;;
23470;SDS011;11908;50.806;4.424;2023-12-04T04:10:50;8.45;;;5.20;;
23470;SDS011;11908;50.806;4.424;2023-12-04T04:13:15;9.55;;;5.10;;
23470;SDS011;11908;50.806;4.424;2023-12-04T04:15:41;9.68;;;5.22;;
23470;SDS011;11908;50.806;4.424;2023-12-04T04:18:07;8.60;;;4.90;;
23470;SDS011;11908;50.806;4.424;2023-12-04T04:20:33;9.32;;;5.45;;
23470;SDS011;11908;50.806;4.424;2023-12-04T04:22:58;7.68;;;4.93;;
23470;SDS011;11908;50.806;4.424;2023-12-04T04:25:24;7.70;;;5.50;;
23470;SDS011;11908;50.806;4.424;2023-12-04T04:27:49;7.65;;;4.85;;
23470;SDS011;11908;50.806;4.424;2023-12-04T04:30:15;7.28;;;4.53;;
23470;SDS011;11908;50.806;4.424;2023-12-04T04:32:42;7.30;;;4.60;;
23470;SDS011;11908;50.806;4.424;2023-12-04T04:35:08;7.15;;;4.68;;
23470;SDS011;11908;50.806;4.424;2023-12-04T04:37:34;7.22;;;4.70;;
23470;SDS011;11908;50.806;4.424;2023-12-04T04:40:00;8.57;;;5.20;;
23470;SDS011;11908;50.806;4.424;2023-12-04T04:42:26;7.80;;;5.47;;
23470;SDS011;11908;50.806;4.424;2023-12-04T04:44:52;7.53;;;4.43;;
23470;SDS011;11908;50.806;4.424;2023-12-04T04:47:18;6.43;;;4.32;;
23470;SDS011;11908;50.806;4.424;2023-12-04T04:49:43;6.75;;;4.57;;
23470;SDS011;11908;50.806;4.424;2023-12-04T04:52:09;7.68;;;4.78;;
23470;SDS011;11908;50.806;4.424;2023-12-04T04:54:35;7.53;;;4.85;;
23470;SDS011;11908;50.806;4.424;2023-12-04T04:57:00;5.30;;;4.03;;
23470;SDS011;11908;50.806;4.424;2023-12-04T04:59:26;6.85;;;4.65;;
23470;SDS011;11908;50.806;4.424;2023-12-04T05:01:55;7.25;;;4.63;;
23470;SDS011;11908;50.806;4.424;2023-12-04T05:04:21;5.45;;;3.88;;
23470;SDS011;11908;50.806;4.424;2023-12-04T05:06:47;7.15;;;4.80;;
23470;SDS011;11908;50.806;4.424;2023-12-04T05:09:12;5.70;;;3.95;;
23470;SDS011;11908;50.806;4.424;2023-12-04T05:11:38;5.20;;;3.80;;
23470;SDS011;11908;50.806;4.424;2023-12-04T05:14:04;6.90;;;4.57;;
23470;SDS011;11908;50.806;4.424;2023-12-04T05:16:29;6.40;;;4.30;;
23470;SDS011;11908;50.806;4.424;2023-12-04T05:18:55;6.53;;;4.07;;
23470;SDS011;11908;50.806;4.424;2023-12-04T05:21:21;6.72;;;4.38;;
23470;SDS011;11908;50.806;4.424;2023-12-04T05:23:46;5.90;;;3.88;;
23470;SDS011;11908;50.806;4.424;2023-12-04T05:26:12;4.65;;;3.42;;
23470;SDS011;11908;50.806;4.424;2023-12-04T05:28:38;8.15;;;4.50;;
23470;SDS011;11908;50.806;4.424;2023-12-04T05:31:04;6.05;;;3.90;;
23470;SDS011;11908;50.806;4.424;2023-12-04T05:33:30;5.50;;;3.75;;
23470;SDS011;11908;50.806;4.424;2023-12-04T05:35:55;5.85;;;3.42;;
23470;SDS011;11908;50.806;4.424;2023-12-04T05:38:21;5.07;;;3.65;;
23470;SDS011;11908;50.806;4.424;2023-12-04T05:40:47;6.40;;;3.78;;
23470;SDS011;11908;50.806;4.424;2023-12-04T05:43:13;5.32;;;3.83;;
23470;SDS011;11908;50.806;4.424;2023-12-04T05:45:39;7.53;;;4.03;;
23470;SDS011;11908;50.806;4.424;2023-12-04T05:48:05;7.00;;;4.15;;
23470;SDS011;11908;50.806;4.424;2023-12-04T05:50:31;6.35;;;4.40;;
23470;SDS011;11908;50.806;4.424;2023-12-04T05:52:56;7.20;;;4.03;;
23470;SDS011;11908;50.806;4.424;2023-12-04T05:55:23;6.60;;;4.13;;
23470;SDS011;11908;50.806;4.424;2023-12-04T05:57:49;4.35;;;3.15;;
23470;SDS011;11908;50.806;4.424;2023-12-04T06:00:15;6.30;;;4.00;;
23470;SDS011;11908;50.806;4.424;2023-12-04T06:02:41;6.10;;;4.07;;
23470;SDS011;11908;50.806;4.424;2023-12-04T06:05:07;6.35;;;4.15;;
23470;SDS011;11908;50.806;4.424;2023-12-04T06:07:34;5.88;;;4.28;;
23470;SDS011;11908;50.806;4.424;2023-12-04T06:10:00;5.85;;;3.90;;
23470;SDS011;11908;50.806;4.424;2023-12-04T06:12:26;6.07;;;3.65;;
23470;SDS011;11908;50.806;4.424;2023-12-04T06:14:51;4.40;;;3.42;;
23470;SDS011;11908;50.806;4.424;2023-12-04T06:17:17;6.47;;;4.32;;
23470;SDS011;11908;50.806;4.424;2023-12-04T06:19:43;7.28;;;4.35;;
23470;SDS011;11908;50.806;4.424;2023-12-04T06:22:10;8.00;;;4.65;;
23470;SDS011;11908;50.806;4.424;2023-12-04T06:24:36;7.93;;;4.40;;
23470;SDS011;11908;50.806;4.424;2023-12-04T06:27:02;6.30;;;4.40;;
23470;SDS011;11908;50.806;4.424;2023-12-04T06:29:30;6.78;;;4.47;;
23470;SDS011;11908;50.806;4.424;2023-12-04T06:31:56;5.93;;;4.13;;
23470;SDS011;11908;50.806;4.424;2023-12-04T06:34:22;6.38;;;4.28;;
23470;SDS011;11908;50.806;4.424;2023-12-04T06:36:48;10.18;;;4.28;;
23470;SDS011;11908;50.806;4.424;2023-12-04T06:39:14;6.20;;;4.03;;
23470;SDS011;11908;50.806;4.424;2023-12-04T06:41:42;7.43;;;4.80;;
23470;SDS011;11908;50.806;4.424;2023-12-04T06:44:09;7.47;;;4.30;;
23470;SDS011;11908;50.806;4.424;2023-12-04T06:46:38;6.20;;;4.28;;
23470;SDS011;11908;50.806;4.424;2023-12-04T06:49:06;6.85;;;4.50;;
23470;SDS011;11908;50.806;4.424;2023-12-04T06:51:34;5.65;;;4.13;;
23470;SDS011;11908;50.806;4.424;2023-12-04T06:54:00;6.25;;;4.65;;
23470;SDS011;11908;50.806;4.424;2023-12-04T06:56:25;7.30;;;4.43;;
23470;SDS011;11908;50.806;4.424;2023-12-04T06:58:51;6.25;;;4.30;;
23470;SDS011;11908;50.806;4.424;2023-12-04T07:01:17;6.40;;;4.65;;
23470;SDS011;11908;50.806;4.424;2023-12-04T07:03:42;7.03;;;4.57;;
23470;SDS011;11908;50.806;4.424;2023-12-04T07:06:08;7.60;;;4.53;;
23470;SDS011;11908;50.806;4.424;2023-12-04T07:08:34;6.18;;;4.55;;
23470;SDS011;11908;50.806;4.424;2023-12-04T07:10:59;8.18;;;4.90;;
23470;SDS011;11908;50.806;4.424;2023-12-04T07:13:25;6.75;;;4.53;;
23470;SDS011;11908;50.806;4.424;2023-12-04T07:15:51;6.45;;;4.80;;
23470;SDS011;11908;50.806;4.424;2023-12-04T07:18:17;7.20;;;4.38;;
23470;SDS011;11908;50.806;4.424;2023-12-04T07:20:42;6.50;;;4.20;;
23470;SDS011;11908;50.806;4.424;2023-12-04T07:23:08;9.88;;;5.18;;
23470;SDS011;11908;50.806;4.424;2023-12-04T07:25:34;6.93;;;4.78;;
23470;SDS011;11908;50.806;4.424;2023-12-04T07:27:59;7.13;;;4.60;;
23470;SDS011;11908;50.806;4.424;2023-12-04T07:30:25;6.07;;;4.38;;
23470;SDS011;11908;50.806;4.424;2023-12-04T07:32:51;6.25;;;4.32;;
23470;SDS011;11908;50.806;4.424;2023-12-04T07:35:18;6.45;;;4.57;;
23470;SDS011;11908;50.806;4.424;2023-12-04T07:37:44;6.32;;;4.72;;
23470;SDS011;11908;50.806;4.424;2023-12-04T07:40:10;7.78;;;5.13;;
23470;SDS011;11908;50.806;4.424;2023-12-04T07:42:39;5.85;;;4.28;;
23470;SDS011;11908;50.806;4.424;2023-12-04T07:45:05;6.32;;;5.00;;
23470;SDS011;11908;50.806;4.424;2023-12-04T07:47:31;9.07;;;4.68;;
23470;SDS011;11908;50.806;4.424;2023-12-04T07:49:56;8.15;;;5.13;;
23470;SDS011;11908;50.806;4.424;2023-12-04T07:52:22;6.70;;;5.05;;
23470;SDS011;11908;50.806;4.424;2023-12-04T07:54:48;8.27;;;5.00;;
23470;SDS011;11908;50.806;4.424;2023-12-04T07:57:14;7.03;;;4.75;;
23470;SDS011;11908;50.806;4.424;2023-12-04T07:59:39;7.53;;;5.35;;
23470;SDS011;11908;50.806;4.424;2023-12-04T08:02:05;7.25;;;5.07;;
23470;SDS011;11908;50.806;4.424;2023-12-04T08:04:31;7.13;;;5.28;;
23470;SDS011;11908;50.806;4.424;2023-12-04T08:06:57;7.70;;;5.40;;
23470;SDS011;11908;50.806;4.424;2023-12-04T08:09:22;6.88;;;4.85;;
23470;SDS011;11908;50.806;4.424;2023-12-04T08:11:48;8.02;;;4.90;;
23470;SDS011;11908;50.806;4.424;2023-12-04T08:14:14;10.00;;;5.50;;
23470;SDS011;11908;50.806;4.424;2023-12-04T08:16:41;8.88;;;5.00;;
23470;SDS011;11908;50.806;4.424;2023-12-04T08:19:06;8.13;;;5.60;;
23470;SDS011;11908;50.806;4.424;2023-12-04T08:21:32;7.40;;;5.18;;
23470;SDS011;11908;50.806;4.424;2023-12-04T08:23:58;8.13;;;5.55;;
23470;SDS011;11908;50.806;4.424;2023-12-04T08:26:24;8.98;;;5.78;;
23470;SDS011;11908;50.806;4.424;2023-12-04T08:28:50;11.10;;;4.78;;
23470;SDS011;11908;50.806;4.424;2023-12-04T08:31:16;9.60;;;5.68;;
23470;SDS011;11908;50.806;4.424;2023-12-04T08:33:42;12.93;;;5.50;;
23470;SDS011;11908;50.806;4.424;2023-12-04T08:36:09;8.18;;;5.88;;
23470;SDS011;11908;50.806;4.424;2023-12-04T08:38:35;7.65;;;5.32;;
23470;SDS011;11908;50.806;4.424;2023-12-04T08:41:01;9.55;;;5.78;;
23470;SDS011;11908;50.806;4.424;2023-12-04T08:43:28;12.88;;;5.25;;
23470;SDS011;11908;50.806;4.424;2023-12-04T08:45:54;7.97;;;5.10;;
23470;SDS011;11908;50.806;4.424;2023-12-04T08:48:20;7.25;;;5.20;;
23470;SDS011;11908;50.806;4.424;2023-12-04T08:50:45;7.32;;;5.30;;
23470;SDS011;11908;50.806;4.424;2023-12-04T08:53:11;6.82;;;4.63;;
23470;SDS011;11908;50.806;4.424;2023-12-04T08:55:37;8.27;;;5.55;;
23470;SDS011;11908;50.806;4.424;2023-12-04T08:58:03;9.20;;;5.43;;
23470;SDS011;11908;50.806;4.424;2023-12-04T09:00:29;7.00;;;4.75;;
23470;SDS011;11908;50.806;4.424;2023-12-04T09:02:54;8.45;;;5.40;;
23470;SDS011;11908;50.806;4.424;2023-12-04T09:05:20;11.05;;;5.60;;
23470;SDS011;11908;50.806;4.424;2023-12-04T09:07:46;8.77;;;5.70;;
23470;SDS011;11908;50.806;4.424;2023-12-04T09:10:12;8.05;;;5.30;;
23470;SDS011;11908;50.806;4.424;2023-12-04T09:12:38;8.90;;;5.78;;
23470;SDS011;11908;50.806;4.424;2023-12-04T09:15:05;7.28;;;5.40;;
23470;SDS011;11908;50.806;4.424;2023-12-04T09:17:31;7.97;;;5.40;;
23470;SDS011;11908;50.806;4.424;2023-12-04T09:19:57;10.07;;;4.93;;
23470;SDS011;11908;50.806;4.424;2023-12-04T09:22:26;8.07;;;5.60;;
23470;SDS011;11908;50.806;4.424;2023-12-04T09:24:51;9.63;;;5.43;;
23470;SDS011;11908;50.806;4.424;2023-12-04T09:27:17;8.93;;;5.43;;
23470;SDS011;11908;50.806;4.424;2023-12-04T09:29:43;11.15;;;5.85;;
23470;SDS011;11908;50.806;4.424;2023-12-04T09:32:09;9.48;;;5.43;;
23470;SDS011;11908;50.806;4.424;2023-12-04T09:34:35;10.45;;;5.85;;
23470;SDS011;11908;50.806;4.424;2023-12-04T09:37:01;8.13;;;5.40;;
23470;SDS011;11908;50.806;4.424;2023-12-04T09:39:27;8.38;;;6.05;;
23470;SDS011;11908;50.806;4.424;2023-12-04T09:41:53;8.95;;;4.88;;
23470;SDS011;11908;50.806;4.424;2023-12-04T09:44:20;7.65;;;5.68;;
23470;SDS011;11908;50.806;4.424;2023-12-04T09:46:49;8.05;;;5.60;;
23470;SDS011;11908;50.806;4.424;2023-12-04T09:49:16;12.32;;;5.80;;
23470;SDS011;11908;50.806;4.424;2023-12-04T09:51:43;9.27;;;5.80;;
23470;SDS011;11908;50.806;4.424;2023-12-04T09:54:09;12.10;;;5.63;;
23470;SDS011;11908;50.806;4.424;2023-12-04T09:56:37;8.77;;;5.45;;
23470;SDS011;11908;50.806;4.424;2023-12-04T09:59:03;10.05;;;5.90;;
23470;SDS011;11908;50.806;4.424;2023-12-04T10:01:31;10.20;;;6.43;;
23470;SDS011;11908;50.806;4.424;2023-12-04T10:03:57;9.48;;;6.05;;
23470;SDS011;11908;50.806;4.424;2023-12-04T10:06:26;12.70;;;6.78;;
23470;SDS011;11908;50.806;4.424;2023-12-04T10:08:56;8.60;;;5.43;;
23470;SDS011;11908;50.806;4.424;2023-12-04T10:11:23;15.15;;;6.50;;
23470;SDS011;11908;50.806;4.424;2023-12-04T10:13:50;8.50;;;6.53;;
23470;SDS011;11908;50.806;4.424;2023-12-04T10:16:35;11.25;;;6.65;;
23470;SDS011;11908;50.806;4.424;2023-12-04T10:19:20;12.68;;;7.18;;
23470;SDS011;11908;50.806;4.424;2023-12-04T10:21:57;10.73;;;6.97;;
23470;SDS011;11908;50.806;4.424;2023-12-04T10:27:09;11.75;;;6.88;;
23470;SDS011;11908;50.806;4.424;2023-12-04T10:29:46;9.45;;;6.68;;
23470;SDS011;11908;50.806;4.424;2023-12-04T10:32:13;12.77;;;6.57;;
23470;SDS011;11908;50.806;4.424;2023-12-04T10:34:46;10.60;;;7.10;;
23470;SDS011;11908;50.806;4.424;2023-12-04T10:37:12;13.90;;;6.72;;
23470;SDS011;11908;50.806;4.424;2023-12-04T10:39:48;10.00;;;6.78;;
23470;SDS011;11908;50.806;4.424;2023-12-04T10:42:24;9.23;;;6.40;;
23470;SDS011;11908;50.806;4.424;2023-12-04T10:44:57;10.48;;;7.20;;
23470;SDS011;11908;50.806;4.424;2023-12-04T10:47:24;10.85;;;6.95;;
23470;SDS011;11908;50.806;4.424;2023-12-04T10:49:50;11.52;;;6.32;;
23470;SDS011;11908;50.806;4.424;2023-12-04T10:52:17;11.07;;;6.75;;
23470;SDS011;11908;50.806;4.424;2023-12-04T10:54:49;9.07;;;6.28;;
23470;SDS011;11908;50.806;4.424;2023-12-04T10:57:24;11.38;;;7.07;;
23470;SDS011;11908;50.806;4.424;2023-12-04T10:59:54;10.90;;;7.22;;
23470;SDS011;11908;50.806;4.424;2023-12-04T11:02:24;12.45;;;6.03;;
23470;SDS011;11908;50.806;4.424;2023-12-04T11:04:51;10.32;;;6.57;;
23470;SDS011;11908;50.806;4.424;2023-12-04T11:07:20;12.45;;;6.85;;
23470;SDS011;11908;50.806;4.424;2023-12-04T11:09:49;10.75;;;6.50;;
23470;SDS011;11908;50.806;4.424;2023-12-04T11:12:16;10.57;;;6.78;;
23470;SDS011;11908;50.806;4.424;2023-12-04T11:14:46;9.57;;;6.88;;
23470;SDS011;11908;50.806;4.424;2023-12-04T11:17:17;10.57;;;6.60;;
23470;SDS011;11908;50.806;4.424;2023-12-04T11:22:43;9.07;;;5.53;;
23470;SDS011;11908;50.806;4.424;2023-12-04T11:25:10;8.80;;;5.55;;
23470;SDS011;11908;50.806;4.424;2023-12-04T11:27:41;11.05;;;5.80;;
23470;SDS011;11908;50.806;4.424;2023-12-04T11:30:07;9.85;;;5.93;;
23470;SDS011;11908;50.806;4.424;2023-12-04T11:32:43;9.15;;;5.68;;
23470;SDS011;11908;50.806;4.424;2023-12-04T11:35:14;9.35;;;6.18;;
23470;SDS011;11908;50.806;4.424;2023-12-04T11:37:42;8.50;;;5.60;;
23470;SDS011;11908;50.806;4.424;2023-12-04T11:40:12;10.32;;;5.55;;
23470;SDS011;11908;50.806;4.424;2023-12-04T11:42:41;10.77;;;6.00;;
23470;SDS011;11908;50.806;4.424;2023-12-04T11:45:07;7.53;;;5.38;;
23470;SDS011;11908;50.806;4.424;2023-12-04T11:47:49;7.95;;;5.60;;
23470;SDS011;11908;50.806;4.424;2023-12-04T11:50:26;8.45;;;5.63;;
23470;SDS011;11908;50.806;4.424;2023-12-04T11:52:52;8.32;;;5.78;;
23470;SDS011;11908;50.806;4.424;2023-12-04T11:55:22;7.45;;;5.30;;
23470;SDS011;11908;50.806;4.424;2023-12-04T11:57:51;10.15;;;5.43;;
23470;SDS011;11908;50.806;4.424;2023-12-04T12:00:22;7.13;;;5.10;;
23470;SDS011;11908;50.806;4.424;2023-12-04T12:05:19;7.95;;;5.53;;
23470;SDS011;11908;50.806;4.424;2023-12-04T12:07:45;7.13;;;5.43;;
23470;SDS011;11908;50.806;4.424;2023-12-04T12:10:11;6.35;;;5.00;;
23470;SDS011;11908;50.806;4.424;2023-12-04T12:12:41;8.02;;;4.95;;
23470;SDS011;11908;50.806;4.424;2023-12-04T12:15:08;9.73;;;5.88;;
23470;SDS011;11908;50.806;4.424;2023-12-04T12:17:35;6.70;;;4.72;;
23470;SDS011;11908;50.806;4.424;2023-12-04T12:20:04;7.80;;;4.80;;
23470;SDS011;11908;50.806;4.424;2023-12-04T12:22:34;9.77;;;5.57;;
23470;SDS011;11908;50.806;4.424;2023-12-04T12:25:00;7.50;;;4.70;;
23470;SDS011;11908;50.806;4.424;2023-12-04T12:27:29;6.45;;;4.80;;
23470;SDS011;11908;50.806;4.424;2023-12-04T12:29:56;7.72;;;5.38;;
23470;SDS011;11908;50.806;4.424;2023-12-04T12:32:21;5.78;;;4.57;;
23470;SDS011;11908;50.806;4.424;2023-12-04T12:34:47;8.05;;;5.43;;
23470;SDS011;11908;50.806;4.424;2023-12-04T12:37:14;6.53;;;4.75;;
23470;SDS011;11908;50.806;4.424;2023-12-04T12:39:40;5.53;;;4.53;;
23470;SDS011;11908;50.806;4.424;2023-12-04T12:42:06;6.10;;;4.65;;
23470;SDS011;11908;50.806;4.424;2023-12-04T12:44:39;6.03;;;4.53;;
23470;SDS011;11908;50.806;4.424;2023-12-04T12:47:06;8.02;;;5.40;;
23470;SDS011;11908;50.806;4.424;2023-12-04T12:49:32;6.50;;;5.00;;
23470;SDS011;11908;50.806;4.424;2023-12-04T12:52:02;5.65;;;4.63;;
23470;SDS011;11908;50.806;4.424;2023-12-04T12:54:30;6.22;;;4.60;;
23470;SDS011;11908;50.806;4.424;2023-12-04T12:56:58;9.93;;;4.70;;
23470;SDS011;11908;50.806;4.424;2023-12-04T12:59:24;5.85;;;4.50;;
23470;SDS011;11908;50.806;4.424;2023-12-04T13:01:52;9.00;;;4.78;;
23470;SDS011;11908;50.806;4.424;2023-12-04T13:04:18;7.22;;;5.07;;
23470;SDS011;11908;50.806;4.424;2023-12-04T13:06:43;6.30;;;4.68;;
23470;SDS011;11908;50.806;4.424;2023-12-04T13:09:11;6.75;;;4.78;;
23470;SDS011;11908;50.806;4.424;2023-12-04T13:11:43;6.65;;;4.70;;
23470;SDS011;11908;50.806;4.424;2023-12-04T13:14:11;6.47;;;5.00;;
23470;SDS011;11908;50.806;4.424;2023-12-04T13:16:37;7.30;;;5.22;;
23470;SDS011;11908;50.806;4.424;2023-12-04T13:19:03;6.85;;;4.65;;
23470;SDS011;11908;50.806;4.424;2023-12-04T13:21:29;8.70;;;4.63;;
23470;SDS011;11908;50.806;4.424;2023-12-04T13:23:56;5.97;;;4.43;;
23470;SDS011;11908;50.806;4.424;2023-12-04T13:26:22;5.45;;;4.53;;
23470;SDS011;11908;50.806;4.424;2023-12-04T13:28:47;6.32;;;4.35;;
23470;SDS011;11908;50.806;4.424;2023-12-04T13:31:13;5.72;;;4.60;;
23470;SDS011;11908;50.806;4.424;2023-12-04T13:33:39;6.65;;;5.18;;
23470;SDS011;11908;50.806;4.424;2023-12-04T13:36:05;6.07;;;4.60;;
23470;SDS011;11908;50.806;4.424;2023-12-04T13:38:31;5.40;;;4.40;;
23470;SDS011;11908;50.806;4.424;2023-12-04T13:40:58;11.43;;;4.47;;
23470;SDS011;11908;50.806;4.424;2023-12-04T13:43:27;7.75;;;5.10;;
23470;SDS011;11908;50.806;4.424;2023-12-04T13:46:11;6.18;;;4.43;;
23470;SDS011;11908;50.806;4.424;2023-12-04T13:48:37;6.55;;;4.75;;
23470;SDS011;11908;50.806;4.424;2023-12-04T13:51:06;5.60;;;4.40;;
23470;SDS011;11908;50.806;4.424;2023-12-04T13:53:34;6.45;;;4.72;;
23470;SDS011;11908;50.806;4.424;2023-12-04T13:56:03;6.50;;;4.68;;
23470;SDS011;11908;50.806;4.424;2023-12-04T13:58:48;6.47;;;4.78;;
23470;SDS011;11908;50.806;4.424;2023-12-04T14:01:25;5.43;;;4.50;;
23470;SDS011;11908;50.806;4.424;2023-12-04T14:03:54;6.07;;;4.63;;
23470;SDS011;11908;50.806;4.424;2023-12-04T14:06:27;7.15;;;5.45;;
23470;SDS011;11908;50.806;4.424;2023-12-04T14:08:53;6.78;;;4.93;;
23470;SDS011;11908;50.806;4.424;2023-12-04T14:11:19;6.68;;;5.20;;
23470;SDS011;11908;50.806;4.424;2023-12-04T14:13:45;7.68;;;4.78;;
23470;SDS011;11908;50.806;4.424;2023-12-04T14:16:11;7.65;;;5.05;;
23470;SDS011;11908;50.806;4.424;2023-12-04T14:18:41;6.55;;;5.25;;
23470;SDS011;11908;50.806;4.424;2023-12-04T14:21:07;6.88;;;4.95;;
23470;SDS011;11908;50.806;4.424;2023-12-04T14:23:33;6.00;;;4.65;;
23470;SDS011;11908;50.806;4.424;2023-12-04T14:25:59;9.15;;;5.28;;
23470;SDS011;11908;50.806;4.424;2023-12-04T14:28:26;6.10;;;4.75;;
23470;SDS011;11908;50.806;4.424;2023-12-04T14:30:52;6.07;;;4.70;;
23470;SDS011;11908;50.806;4.424;2023-12-04T14:33:17;6.15;;;4.95;;
23470;SDS011;11908;50.806;4.424;2023-12-04T14:35:43;8.38;;;5.00;;
23470;SDS011;11908;50.806;4.424;2023-12-04T14:38:09;8.10;;;5.30;;
23470;SDS011;11908;50.806;4.424;2023-12-04T14:40:35;5.63;;;4.88;;
23470;SDS011;11908;50.806;4.424;2023-12-04T14:43:00;5.47;;;4.45;;
23470;SDS011;11908;50.806;4.424;2023-12-04T14:45:26;6.68;;;4.88;;
23470;SDS011;11908;50.806;4.424;2023-12-04T14:47:52;6.55;;;5.13;;
23470;SDS011;11908;50.806;4.424;2023-12-04T14:50:21;6.95;;;5.25;;
23470;SDS011;11908;50.806;4.424;2023-12-04T14:52:48;7.80;;;5.18;;
23470;SDS011;11908;50.806;4.424;2023-12-04T14:55:19;8.65;;;5.88;;
23470;SDS011;11908;50.806;4.424;2023-12-04T14:57:47;6.18;;;5.32;;
23470;SDS011;11908;50.806;4.424;2023-12-04T15:00:31;7.00;;;5.32;;
23470;SDS011;11908;50.806;4.424;2023-12-04T15:03:00;6.65;;;4.47;;
23470;SDS011;11908;50.806;4.424;2023-12-04T15:05:34;8.30;;;5.40;;
23470;SDS011;11908;50.806;4.424;2023-12-04T15:08:03;10.00;;;5.35;;
23470;SDS011;11908;50.806;4.424;2023-12-04T15:10:54;7.60;;;5.15;;
23470;SDS011;11908;50.806;4.424;2023-12-04T15:13:20;9.55;;;5.25;;
23470;SDS011;11908;50.806;4.424;2023-12-04T15:16:05;7.25;;;5.22;;